Terminal Aerodrome Forecast
Issued by NWS Sioux Falls, SD

Home | Current Version | Previous Version | Graphics & Text | Print | Product List | Glossary On
Versions: 1 2 3 4 5 6 7 8 9 10 11 12 13 14 15 16 17
000
FTUS43 KFSD 191852 AAA
TAFSUX
TAF AMD
KSUX 191852Z 1919/2018 35012KT 5SM -SHRA BR OVC025
     FM192100 02008KT P6SM VCSH BKN030 OVC080
     FM200600 05009KT P6SM OVC025
     FM200800 03010KT P6SM OVC015=

USA.gov is the U.S. government's official web portal to all federal, state and local government web resources and services.